Time,TemperatureF,DewpointF,PressureIn,WindDirection,WindDirectionDegrees,WindSpeedMPH,WindSpeedGustMPH,Humidity,HourlyPrecipIn,Conditions,Clouds,dailyrainin,SolarRadiationWatts/m^2,SoftwareType,DateUTC
2013-10-18 00:00:00,42.0,39.0,-100.00,SE,136,1.0,2.0,88,-99.99,,,0.00,0.000000,,2013-10-18 07:00:00,
2013-10-18 00:42:00,42.0,39.0,-100.00,SE,136,1.0,2.0,88,-99.99,,,0.00,0.000000,,2013-10-18 07:42:00,
2013-10-18 00:52:00,42.0,39.0,-100.00,SE,136,1.0,2.0,88,-99.99,,,0.00,0.000000,,2013-10-18 07:52:00,
2013-10-18 01:00:00,40.0,38.0,-100.00,SW,223,0.0,2.0,93,-99.99,,,0.00,0.000000,,2013-10-18 08:00:00,
2013-10-18 01:42:00,40.0,38.0,-100.00,SW,223,0.0,2.0,93,-99.99,,,0.00,0.000000,,2013-10-18 08:42:00,
2013-10-18 01:52:00,40.0,38.0,-100.00,SW,223,0.0,2.0,93,-99.99,,,0.00,0.000000,,2013-10-18 08:52:00,
2013-10-18 02:00:00,39.0,37.0,-100.00,SE,133,1.0,2.0,93,-99.99,,,0.00,0.000000,,2013-10-18 09:00:00,
2013-10-18 02:53:00,39.0,37.0,-100.00,SE,133,1.0,2.0,93,-99.99,,,0.00,0.000000,,2013-10-18 09:53:00,
2013-10-18 03:00:00,38.0,36.0,-100.00,South,184,1.0,3.0,93,-99.99,,,0.00,0.000000,,2013-10-18 10:00:00,
2013-10-18 03:43:00,38.0,36.0,-100.00,South,184,1.0,3.0,93,-99.99,,,0.00,0.000000,,2013-10-18 10:43:00,
2013-10-18 03:53:00,38.0,36.0,-100.00,South,184,1.0,3.0,93,-99.99,,,0.00,0.000000,,2013-10-18 10:53:00,
2013-10-18 04:00:00,38.0,36.0,-100.00,South,190,2.0,3.0,94,-99.99,,,0.00,0.000000,,2013-10-18 11:00:00,
2013-10-18 04:52:00,38.0,36.0,-100.00,South,190,2.0,3.0,94,-99.99,,,0.00,0.000000,,2013-10-18 11:52:00,
2013-10-18 05:00:00,36.0,35.0,-100.00,ESE,111,1.0,2.0,94,-99.99,,,0.00,0.000000,,2013-10-18 12:00:00,
2013-10-18 05:42:00,36.0,35.0,-100.00,ESE,111,1.0,2.0,94,-99.99,,,0.00,0.000000,,2013-10-18 12:42:00,
2013-10-18 05:52:00,36.0,35.0,-100.00,ESE,111,1.0,2.0,94,-99.99,,,0.00,0.000000,,2013-10-18 12:52:00,
2013-10-18 06:00:00,35.0,34.0,-100.00,SE,128,1.0,2.0,94,-99.99,,,0.00,0.000000,,2013-10-18 13:00:00,
2013-10-18 06:42:00,35.0,34.0,-100.00,SE,128,1.0,2.0,94,-99.99,,,0.00,0.000000,,2013-10-18 13:42:00,
2013-10-18 06:52:00,35.0,34.0,-100.00,SE,128,1.0,2.0,94,-99.99,,,0.00,0.000000,,2013-10-18 13:52:00,
2013-10-18 07:00:00,34.0,33.0,-100.00,South,170,2.0,4.0,95,-99.99,,,0.00,0.000000,,2013-10-18 14:00:00,
2013-10-18 07:52:00,34.0,33.0,-100.00,South,170,2.0,4.0,95,-99.99,,,0.00,0.000000,,2013-10-18 14:52:00,
2013-10-18 08:00:00,34.0,32.0,-100.00,East,83,0.0,2.0,95,-99.99,,,0.00,14.760000,,2013-10-18 15:00:00,
2013-10-18 08:43:00,34.0,32.0,-100.00,East,83,0.0,2.0,95,-99.99,,,0.00,14.760000,,2013-10-18 15:43:00,
2013-10-18 08:54:00,34.0,32.0,-100.00,East,83,0.0,2.0,95,-99.99,,,0.00,14.760000,,2013-10-18 15:54:00,
2013-10-18 09:00:00,40.0,38.0,-100.00,SSW,206,1.0,3.0,92,-99.99,,,0.00,205.009995,,2013-10-18 16:00:00,
2013-10-18 09:53:00,40.0,38.0,-100.00,SSW,206,1.0,3.0,92,-99.99,,,0.00,205.009995,,2013-10-18 16:53:00,
2013-10-18 10:00:00,45.0,39.0,-100.00,East,99,2.0,4.0,80,-99.99,,,0.00,349.010010,,2013-10-18 17:00:00,
2013-10-18 10:52:00,45.0,39.0,-100.00,East,99,2.0,4.0,80,-99.99,,,0.00,349.010010,,2013-10-18 17:52:00,
2013-10-18 11:00:00,49.0,39.0,-100.00,SW,217,1.0,4.0,68,-99.99,,,0.00,469.649994,,2013-10-18 18:00:00,
2013-10-18 11:42:00,49.0,39.0,-100.00,SW,217,1.0,4.0,68,-99.99,,,0.00,469.649994,,2013-10-18 18:42:00,
2013-10-18 11:52:00,49.0,39.0,-100.00,SW,217,1.0,4.0,68,-99.99,,,0.00,469.649994,,2013-10-18 18:52:00,
2013-10-18 12:00:00,55.0,42.0,-100.00,WNW,298,2.0,4.0,60,-99.99,,,0.00,548.909973,,2013-10-18 19:00:00,
2013-10-18 12:42:00,55.0,42.0,-100.00,WNW,298,2.0,4.0,60,-99.99,,,0.00,548.909973,,2013-10-18 19:42:00,
2013-10-18 12:52:00,55.0,42.0,-100.00,WNW,298,2.0,4.0,60,-99.99,,,0.00,548.909973,,2013-10-18 19:52:00,
2013-10-18 13:00:00,63.0,42.0,-100.00,ENE,65,2.0,7.0,45,-99.99,,,0.00,577.609985,,2013-10-18 20:00:00,
2013-10-18 13:42:00,63.0,42.0,-100.00,ENE,65,2.0,7.0,45,-99.99,,,0.00,577.609985,,2013-10-18 20:42:00,
2013-10-18 13:52:00,63.0,42.0,-100.00,ENE,65,2.0,7.0,45,-99.99,,,0.00,577.609985,,2013-10-18 20:52:00,
2013-10-18 14:00:00,65.0,39.0,-100.00,NE,55,5.0,9.0,38,-99.99,,,0.00,552.630005,,2013-10-18 21:00:00,
2013-10-18 14:44:00,65.0,39.0,-100.00,NE,55,5.0,9.0,38,-99.99,,,0.00,552.630005,,2013-10-18 21:44:00,
2013-10-18 14:54:00,65.0,39.0,-100.00,NE,55,5.0,9.0,38,-99.99,,,0.00,552.630005,,2013-10-18 21:54:00,
2013-10-18 15:00:00,66.0,38.0,-100.00,NE,53,4.0,10.0,35,-99.99,,,0.00,470.920013,,2013-10-18 22:00:00,
2013-10-18 15:54:00,66.0,38.0,-100.00,NE,53,4.0,10.0,35,-99.99,,,0.00,470.920013,,2013-10-18 22:54:00,
2013-10-18 16:00:00,66.0,39.0,-100.00,NE,54,2.0,6.0,36,-99.99,,,0.00,344.359985,,2013-10-18 23:00:00,
2013-10-18 16:53:00,66.0,39.0,-100.00,NE,54,2.0,6.0,36,-99.99,,,0.00,344.359985,,2013-10-18 23:53:00,
2013-10-18 17:00:00,65.0,38.0,-100.00,NNE,31,4.0,9.0,36,-99.99,,,0.00,190.720001,,2013-10-19 00:00:00,
2013-10-18 17:42:00,65.0,38.0,-100.00,NNE,31,4.0,9.0,36,-99.99,,,0.00,190.720001,,2013-10-19 00:42:00,
2013-10-18 17:52:00,65.0,38.0,-100.00,NNE,31,4.0,9.0,36,-99.99,,,0.00,190.720001,,2013-10-19 00:52:00,
2013-10-18 18:00:00,58.0,41.0,-100.00,WSW,250,2.0,2.0,52,-99.99,,,0.00,15.690000,,2013-10-19 01:00:00,
2013-10-18 18:53:00,58.0,41.0,-100.00,WSW,250,2.0,2.0,52,-99.99,,,0.00,15.690000,,2013-10-19 01:53:00,
2013-10-18 19:00:00,52.0,42.0,-100.00,SW,216,2.0,4.0,69,-99.99,,,0.00,0.000000,,2013-10-19 02:00:00,
2013-10-18 19:42:00,52.0,42.0,-100.00,SW,216,2.0,4.0,69,-99.99,,,0.00,0.000000,,2013-10-19 02:42:00,
2013-10-18 19:52:00,52.0,42.0,-100.00,SW,216,2.0,4.0,69,-99.99,,,0.00,0.000000,,2013-10-19 02:52:00,
2013-10-18 20:00:00,48.0,43.0,-100.00,SSE,161,1.0,3.0,81,-99.99,,,0.00,0.000000,,2013-10-19 03:00:00,
2013-10-18 20:44:00,48.0,43.0,-100.00,SSE,161,1.0,3.0,81,-99.99,,,0.00,0.000000,,2013-10-19 03:44:00,
2013-10-18 20:55:00,48.0,43.0,-100.00,SSE,161,1.0,3.0,81,-99.99,,,0.00,0.000000,,2013-10-19 03:55:00,
2013-10-18 21:00:00,48.0,43.0,-100.00,SSE,154,3.0,5.0,79,-99.99,,,0.00,0.000000,,2013-10-19 04:00:00,
2013-10-18 21:44:00,48.0,43.0,-100.00,SSE,154,3.0,5.0,79,-99.99,,,0.00,0.000000,,2013-10-19 04:44:00,
2013-10-18 21:54:00,48.0,43.0,-100.00,SSE,154,3.0,5.0,79,-99.99,,,0.00,0.000000,,2013-10-19 04:54:00,
2013-10-18 22:00:00,46.0,41.0,-100.00,ESE,119,3.0,4.0,82,-99.99,,,0.00,0.000000,,2013-10-19 05:00:00,
2013-10-18 22:42:00,46.0,41.0,-100.00,ESE,119,3.0,4.0,82,-99.99,,,0.00,0.000000,,2013-10-19 05:42:00,
2013-10-18 22:52:00,46.0,41.0,-100.00,ESE,119,3.0,4.0,82,-99.99,,,0.00,0.000000,,2013-10-19 05:52:00,
2013-10-18 23:00:00,44.0,40.0,-100.00,South,174,1.0,3.0,85,-99.99,,,0.00,0.000000,,2013-10-19 06:00:00,
2013-10-18 23:42:00,44.0,40.0,-100.00,South,174,1.0,3.0,85,-99.99,,,0.00,0.000000,,2013-10-19 06:42:00,
2013-10-18 23:52:00,44.0,40.0,-100.00,South,174,1.0,3.0,85,-99.99,,,0.00,0.000000,,2013-10-19 06:52:00,